sensor_id;sensor_type;location;lat;lon;timestamp;P1;durP1;ratioP1;P2;durP2;ratioP2
67902;SDS011;54708;43.612;1.568;2022-12-16T00:00:00;37.03;;;26.98;;
67902;SDS011;54708;43.612;1.568;2022-12-16T00:02:25;53.42;;;39.85;;
67902;SDS011;54708;43.612;1.568;2022-12-16T00:04:51;53.13;;;38.55;;
67902;SDS011;54708;43.612;1.568;2022-12-16T00:07:16;49.83;;;33.30;;
67902;SDS011;54708;43.612;1.568;2022-12-16T00:09:42;44.75;;;33.97;;
67902;SDS011;54708;43.612;1.568;2022-12-16T00:12:07;52.15;;;34.88;;
67902;SDS011;54708;43.612;1.568;2022-12-16T00:14:32;46.47;;;31.95;;
67902;SDS011;54708;43.612;1.568;2022-12-16T00:16:58;43.40;;;33.22;;
67902;SDS011;54708;43.612;1.568;2022-12-16T00:19:23;41.90;;;30.73;;
67902;SDS011;54708;43.612;1.568;2022-12-16T00:21:48;38.83;;;27.92;;
67902;SDS011;54708;43.612;1.568;2022-12-16T00:24:14;33.25;;;24.88;;
67902;SDS011;54708;43.612;1.568;2022-12-16T00:26:39;34.78;;;22.50;;
67902;SDS011;54708;43.612;1.568;2022-12-16T00:29:05;34.50;;;24.67;;
67902;SDS011;54708;43.612;1.568;2022-12-16T00:31:30;41.33;;;29.15;;
67902;SDS011;54708;43.612;1.568;2022-12-16T00:33:56;35.90;;;27.33;;
67902;SDS011;54708;43.612;1.568;2022-12-16T00:36:22;42.85;;;25.38;;
67902;SDS011;54708;43.612;1.568;2022-12-16T00:38:47;32.90;;;25.45;;
67902;SDS011;54708;43.612;1.568;2022-12-16T00:41:12;32.58;;;23.75;;
67902;SDS011;54708;43.612;1.568;2022-12-16T00:43:38;27.00;;;20.58;;
67902;SDS011;54708;43.612;1.568;2022-12-16T00:46:03;30.38;;;23.98;;
67902;SDS011;54708;43.612;1.568;2022-12-16T00:48:29;28.20;;;21.75;;
67902;SDS011;54708;43.612;1.568;2022-12-16T00:50:54;32.35;;;21.13;;
67902;SDS011;54708;43.612;1.568;2022-12-16T00:53:20;34.33;;;23.70;;
67902;SDS011;54708;43.612;1.568;2022-12-16T00:55:46;31.13;;;22.80;;
67902;SDS011;54708;43.612;1.568;2022-12-16T00:58:12;30.85;;;22.40;;
67902;SDS011;54708;43.612;1.568;2022-12-16T01:00:38;35.47;;;28.45;;
67902;SDS011;54708;43.612;1.568;2022-12-16T01:03:03;41.25;;;28.20;;
67902;SDS011;54708;43.612;1.568;2022-12-16T01:05:29;34.15;;;22.95;;
67902;SDS011;54708;43.612;1.568;2022-12-16T01:07:55;31.42;;;23.50;;
67902;SDS011;54708;43.612;1.568;2022-12-16T01:10:21;29.60;;;23.77;;
67902;SDS011;54708;43.612;1.568;2022-12-16T01:12:47;33.97;;;22.38;;
67902;SDS011;54708;43.612;1.568;2022-12-16T01:15:14;31.25;;;19.27;;
67902;SDS011;54708;43.612;1.568;2022-12-16T01:17:39;27.88;;;19.77;;
67902;SDS011;54708;43.612;1.568;2022-12-16T01:20:05;26.85;;;17.95;;
67902;SDS011;54708;43.612;1.568;2022-12-16T01:22:31;26.23;;;18.48;;
67902;SDS011;54708;43.612;1.568;2022-12-16T01:24:57;25.85;;;19.08;;
67902;SDS011;54708;43.612;1.568;2022-12-16T01:27:23;25.05;;;18.23;;
67902;SDS011;54708;43.612;1.568;2022-12-16T01:29:49;24.55;;;17.13;;
67902;SDS011;54708;43.612;1.568;2022-12-16T01:32:14;30.92;;;18.70;;
67902;SDS011;54708;43.612;1.568;2022-12-16T01:34:40;24.13;;;16.38;;
67902;SDS011;54708;43.612;1.568;2022-12-16T01:37:08;24.88;;;18.30;;
67902;SDS011;54708;43.612;1.568;2022-12-16T01:39:37;28.55;;;18.70;;
67902;SDS011;54708;43.612;1.568;2022-12-16T01:42:03;24.73;;;17.25;;
67902;SDS011;54708;43.612;1.568;2022-12-16T01:44:33;24.45;;;18.95;;
67902;SDS011;54708;43.612;1.568;2022-12-16T01:47:00;28.13;;;18.38;;
67902;SDS011;54708;43.612;1.568;2022-12-16T01:52:06;25.85;;;19.00;;
67902;SDS011;54708;43.612;1.568;2022-12-16T01:54:42;29.40;;;18.85;;
67902;SDS011;54708;43.612;1.568;2022-12-16T01:57:11;26.73;;;18.45;;
67902;SDS011;54708;43.612;1.568;2022-12-16T01:59:38;22.05;;;16.77;;
67902;SDS011;54708;43.612;1.568;2022-12-16T02:02:06;27.73;;;20.15;;
67902;SDS011;54708;43.612;1.568;2022-12-16T02:04:33;28.48;;;19.42;;
67902;SDS011;54708;43.612;1.568;2022-12-16T02:06:59;27.77;;;19.30;;
67902;SDS011;54708;43.612;1.568;2022-12-16T02:09:25;30.40;;;19.35;;
67902;SDS011;54708;43.612;1.568;2022-12-16T02:12:04;30.60;;;20.52;;
67902;SDS011;54708;43.612;1.568;2022-12-16T02:14:42;34.22;;;24.27;;
67902;SDS011;54708;43.612;1.568;2022-12-16T02:17:15;30.33;;;22.15;;
67902;SDS011;54708;43.612;1.568;2022-12-16T02:41:26;25.00;;;17.20;;
67902;SDS011;54708;43.612;1.568;2022-12-16T02:44:07;26.58;;;19.92;;
67902;SDS011;54708;43.612;1.568;2022-12-16T02:46:37;23.00;;;17.63;;
67902;SDS011;54708;43.612;1.568;2022-12-16T02:49:48;26.40;;;18.20;;
67902;SDS011;54708;43.612;1.568;2022-12-16T02:51:53;32.13;;;20.45;;
67902;SDS011;54708;43.612;1.568;2022-12-16T02:54:19;28.52;;;19.45;;
67902;SDS011;54708;43.612;1.568;2022-12-16T03:01:53;30.27;;;20.80;;
67902;SDS011;54708;43.612;1.568;2022-12-16T03:04:26;31.63;;;21.35;;
67902;SDS011;54708;43.612;1.568;2022-12-16T03:07:06;26.88;;;19.55;;
67902;SDS011;54708;43.612;1.568;2022-12-16T03:09:35;29.33;;;18.40;;
67902;SDS011;54708;43.612;1.568;2022-12-16T03:12:03;25.15;;;19.65;;
67902;SDS011;54708;43.612;1.568;2022-12-16T03:14:33;24.63;;;18.27;;
67902;SDS011;54708;43.612;1.568;2022-12-16T03:16:59;26.17;;;17.77;;
67902;SDS011;54708;43.612;1.568;2022-12-16T03:19:26;26.20;;;19.55;;
67902;SDS011;54708;43.612;1.568;2022-12-16T03:24:27;25.67;;;18.48;;
67902;SDS011;54708;43.612;1.568;2022-12-16T03:37:51;23.17;;;18.00;;
67902;SDS011;54708;43.612;1.568;2022-12-16T03:40:19;29.17;;;19.38;;
67902;SDS011;54708;43.612;1.568;2022-12-16T03:42:45;25.45;;;18.48;;
67902;SDS011;54708;43.612;1.568;2022-12-16T03:45:12;23.00;;;16.88;;
67902;SDS011;54708;43.612;1.568;2022-12-16T03:47:40;25.75;;;17.70;;
67902;SDS011;54708;43.612;1.568;2022-12-16T03:50:06;22.90;;;16.50;;
67902;SDS011;54708;43.612;1.568;2022-12-16T03:52:32;21.85;;;16.65;;
67902;SDS011;54708;43.612;1.568;2022-12-16T03:54:57;24.00;;;17.15;;
67902;SDS011;54708;43.612;1.568;2022-12-16T03:57:22;22.20;;;16.73;;
67902;SDS011;54708;43.612;1.568;2022-12-16T03:59:48;24.60;;;17.13;;
67902;SDS011;54708;43.612;1.568;2022-12-16T04:02:13;27.42;;;16.95;;
67902;SDS011;54708;43.612;1.568;2022-12-16T04:04:39;21.25;;;16.55;;
67902;SDS011;54708;43.612;1.568;2022-12-16T04:07:04;20.38;;;16.20;;
67902;SDS011;54708;43.612;1.568;2022-12-16T04:09:44;25.40;;;16.30;;
67902;SDS011;54708;43.612;1.568;2022-12-16T04:12:10;25.90;;;15.93;;
67902;SDS011;54708;43.612;1.568;2022-12-16T04:14:54;20.75;;;16.40;;
67902;SDS011;54708;43.612;1.568;2022-12-16T04:17:38;21.35;;;16.25;;
67902;SDS011;54708;43.612;1.568;2022-12-16T04:20:24;24.40;;;16.10;;
67902;SDS011;54708;43.612;1.568;2022-12-16T04:23:11;21.55;;;16.23;;
67902;SDS011;54708;43.612;1.568;2022-12-16T04:25:55;20.35;;;16.67;;
67902;SDS011;54708;43.612;1.568;2022-12-16T04:28:21;21.65;;;16.55;;
67902;SDS011;54708;43.612;1.568;2022-12-16T04:30:46;27.88;;;18.35;;
67902;SDS011;54708;43.612;1.568;2022-12-16T04:33:12;22.38;;;16.23;;
67902;SDS011;54708;43.612;1.568;2022-12-16T04:35:57;18.90;;;15.70;;
67902;SDS011;54708;43.612;1.568;2022-12-16T04:38:41;24.25;;;16.92;;
67902;SDS011;54708;43.612;1.568;2022-12-16T04:41:25;22.02;;;16.08;;
67902;SDS011;54708;43.612;1.568;2022-12-16T04:44:09;22.02;;;15.20;;
67902;SDS011;54708;43.612;1.568;2022-12-16T04:46:52;22.08;;;16.00;;
67902;SDS011;54708;43.612;1.568;2022-12-16T04:49:36;27.70;;;15.95;;
67902;SDS011;54708;43.612;1.568;2022-12-16T04:52:20;26.08;;;17.45;;
67902;SDS011;54708;43.612;1.568;2022-12-16T04:55:05;29.52;;;16.55;;
67902;SDS011;54708;43.612;1.568;2022-12-16T04:57:50;24.73;;;16.25;;
67902;SDS011;54708;43.612;1.568;2022-12-16T05:00:38;24.33;;;16.55;;
67902;SDS011;54708;43.612;1.568;2022-12-16T05:03:22;24.05;;;18.15;;
67902;SDS011;54708;43.612;1.568;2022-12-16T05:06:07;38.58;;;23.42;;
67902;SDS011;54708;43.612;1.568;2022-12-16T05:08:50;35.72;;;23.58;;
67902;SDS011;54708;43.612;1.568;2022-12-16T05:11:45;35.72;;;21.02;;
67902;SDS011;54708;43.612;1.568;2022-12-16T05:14:29;30.63;;;22.23;;
67902;SDS011;54708;43.612;1.568;2022-12-16T05:17:12;28.33;;;20.90;;
67902;SDS011;54708;43.612;1.568;2022-12-16T05:19:57;32.22;;;19.48;;
67902;SDS011;54708;43.612;1.568;2022-12-16T05:22:41;35.22;;;23.25;;
67902;SDS011;54708;43.612;1.568;2022-12-16T05:25:24;30.05;;;20.33;;
67902;SDS011;54708;43.612;1.568;2022-12-16T05:28:08;27.85;;;18.92;;
67902;SDS011;54708;43.612;1.568;2022-12-16T05:30:52;28.80;;;19.02;;
67902;SDS011;54708;43.612;1.568;2022-12-16T05:33:36;30.52;;;20.58;;
67902;SDS011;54708;43.612;1.568;2022-12-16T05:36:20;28.88;;;19.20;;
67902;SDS011;54708;43.612;1.568;2022-12-16T05:39:04;34.45;;;20.85;;
67902;SDS011;54708;43.612;1.568;2022-12-16T05:41:48;29.35;;;19.77;;
67902;SDS011;54708;43.612;1.568;2022-12-16T05:44:31;27.42;;;18.83;;
67902;SDS011;54708;43.612;1.568;2022-12-16T05:47:15;31.75;;;21.02;;
67902;SDS011;54708;43.612;1.568;2022-12-16T05:49:59;32.88;;;22.05;;
67902;SDS011;54708;43.612;1.568;2022-12-16T05:52:50;33.95;;;21.73;;
67902;SDS011;54708;43.612;1.568;2022-12-16T05:55:37;36.20;;;22.55;;
67902;SDS011;54708;43.612;1.568;2022-12-16T05:58:35;34.95;;;23.08;;
67902;SDS011;54708;43.612;1.568;2022-12-16T06:01:19;37.58;;;23.58;;
67902;SDS011;54708;43.612;1.568;2022-12-16T06:04:03;44.42;;;23.65;;
67902;SDS011;54708;43.612;1.568;2022-12-16T06:06:47;33.75;;;23.88;;
67902;SDS011;54708;43.612;1.568;2022-12-16T06:09:31;42.45;;;23.75;;
67902;SDS011;54708;43.612;1.568;2022-12-16T06:12:15;45.25;;;25.27;;
67902;SDS011;54708;43.612;1.568;2022-12-16T06:14:59;42.10;;;23.85;;
67902;SDS011;54708;43.612;1.568;2022-12-16T06:17:46;36.70;;;23.25;;
67902;SDS011;54708;43.612;1.568;2022-12-16T06:20:31;40.85;;;24.48;;
67902;SDS011;54708;43.612;1.568;2022-12-16T06:23:15;43.63;;;24.63;;
67902;SDS011;54708;43.612;1.568;2022-12-16T06:25:59;40.72;;;23.27;;
67902;SDS011;54708;43.612;1.568;2022-12-16T06:28:43;37.25;;;22.75;;
67902;SDS011;54708;43.612;1.568;2022-12-16T06:31:27;42.05;;;24.98;;
67902;SDS011;54708;43.612;1.568;2022-12-16T06:34:11;41.55;;;24.45;;
67902;SDS011;54708;43.612;1.568;2022-12-16T06:36:55;38.97;;;23.00;;
67902;SDS011;54708;43.612;1.568;2022-12-16T06:39:39;34.13;;;22.73;;
67902;SDS011;54708;43.612;1.568;2022-12-16T06:42:23;35.88;;;22.85;;
67902;SDS011;54708;43.612;1.568;2022-12-16T06:45:07;33.33;;;21.20;;
67902;SDS011;54708;43.612;1.568;2022-12-16T06:47:51;34.90;;;21.63;;
67902;SDS011;54708;43.612;1.568;2022-12-16T06:50:35;39.63;;;20.58;;
67902;SDS011;54708;43.612;1.568;2022-12-16T06:53:19;31.63;;;21.13;;
67902;SDS011;54708;43.612;1.568;2022-12-16T06:56:03;39.42;;;22.20;;
67902;SDS011;54708;43.612;1.568;2022-12-16T06:58:46;32.58;;;21.00;;
67902;SDS011;54708;43.612;1.568;2022-12-16T07:01:30;33.88;;;20.70;;
67902;SDS011;54708;43.612;1.568;2022-12-16T07:04:14;31.67;;;20.55;;
67902;SDS011;54708;43.612;1.568;2022-12-16T07:06:58;27.98;;;19.55;;
67902;SDS011;54708;43.612;1.568;2022-12-16T07:09:42;31.58;;;20.48;;
67902;SDS011;54708;43.612;1.568;2022-12-16T07:12:26;27.77;;;19.52;;
67902;SDS011;54708;43.612;1.568;2022-12-16T07:15:10;26.23;;;18.52;;
67902;SDS011;54708;43.612;1.568;2022-12-16T07:17:54;31.70;;;19.98;;
67902;SDS011;54708;43.612;1.568;2022-12-16T07:20:38;32.35;;;20.45;;
67902;SDS011;54708;43.612;1.568;2022-12-16T07:23:22;30.85;;;20.83;;
67902;SDS011;54708;43.612;1.568;2022-12-16T07:26:06;30.25;;;20.27;;
67902;SDS011;54708;43.612;1.568;2022-12-16T07:28:49;27.30;;;19.25;;
67902;SDS011;54708;43.612;1.568;2022-12-16T07:31:33;26.77;;;20.40;;
67902;SDS011;54708;43.612;1.568;2022-12-16T07:34:17;29.88;;;20.15;;
67902;SDS011;54708;43.612;1.568;2022-12-16T07:37:01;30.75;;;18.92;;
67902;SDS011;54708;43.612;1.568;2022-12-16T07:39:45;34.65;;;19.20;;
67902;SDS011;54708;43.612;1.568;2022-12-16T07:42:29;33.55;;;19.55;;
67902;SDS011;54708;43.612;1.568;2022-12-16T07:45:13;37.65;;;24.17;;
67902;SDS011;54708;43.612;1.568;2022-12-16T07:47:57;32.90;;;20.23;;
67902;SDS011;54708;43.612;1.568;2022-12-16T07:50:41;34.83;;;20.92;;
67902;SDS011;54708;43.612;1.568;2022-12-16T07:53:35;30.75;;;20.33;;
67902;SDS011;54708;43.612;1.568;2022-12-16T07:56:19;35.45;;;23.60;;
67902;SDS011;54708;43.612;1.568;2022-12-16T07:59:03;40.97;;;25.50;;
67902;SDS011;54708;43.612;1.568;2022-12-16T08:01:55;36.00;;;22.80;;
67902;SDS011;54708;43.612;1.568;2022-12-16T08:04:39;35.55;;;23.88;;
67902;SDS011;54708;43.612;1.568;2022-12-16T08:07:23;40.97;;;24.55;;
67902;SDS011;54708;43.612;1.568;2022-12-16T08:10:07;34.80;;;21.55;;
67902;SDS011;54708;43.612;1.568;2022-12-16T08:12:57;38.78;;;22.67;;
67902;SDS011;54708;43.612;1.568;2022-12-16T08:15:42;34.53;;;20.50;;
67902;SDS011;54708;43.612;1.568;2022-12-16T08:18:26;31.77;;;21.85;;
67902;SDS011;54708;43.612;1.568;2022-12-16T08:21:09;74.10;;;23.92;;
67902;SDS011;54708;43.612;1.568;2022-12-16T08:24:10;324.30;;;44.03;;
67902;SDS011;54708;43.612;1.568;2022-12-16T08:26:54;228.10;;;37.55;;
67902;SDS011;54708;43.612;1.568;2022-12-16T08:29:38;34.50;;;22.90;;
67902;SDS011;54708;43.612;1.568;2022-12-16T08:32:22;39.60;;;21.77;;
67902;SDS011;54708;43.612;1.568;2022-12-16T08:35:06;35.47;;;23.30;;
67902;SDS011;54708;43.612;1.568;2022-12-16T08:37:53;34.67;;;22.10;;
67902;SDS011;54708;43.612;1.568;2022-12-16T08:40:38;31.90;;;20.30;;
67902;SDS011;54708;43.612;1.568;2022-12-16T08:43:23;32.78;;;19.98;;
67902;SDS011;54708;43.612;1.568;2022-12-16T08:46:07;29.10;;;19.70;;
67902;SDS011;54708;43.612;1.568;2022-12-16T08:48:56;27.42;;;18.83;;
67902;SDS011;54708;43.612;1.568;2022-12-16T08:51:39;28.80;;;19.33;;
67902;SDS011;54708;43.612;1.568;2022-12-16T08:54:23;32.88;;;20.45;;
67902;SDS011;54708;43.612;1.568;2022-12-16T08:57:07;28.45;;;20.20;;
67902;SDS011;54708;43.612;1.568;2022-12-16T08:59:51;32.03;;;20.35;;
67902;SDS011;54708;43.612;1.568;2022-12-16T09:02:35;28.55;;;19.20;;
67902;SDS011;54708;43.612;1.568;2022-12-16T09:05:19;28.92;;;18.00;;
67902;SDS011;54708;43.612;1.568;2022-12-16T09:08:03;26.17;;;17.95;;
67902;SDS011;54708;43.612;1.568;2022-12-16T09:10:47;34.20;;;20.08;;
67902;SDS011;54708;43.612;1.568;2022-12-16T09:13:31;25.55;;;18.65;;
67902;SDS011;54708;43.612;1.568;2022-12-16T09:16:15;23.50;;;17.75;;
67902;SDS011;54708;43.612;1.568;2022-12-16T09:18:58;25.55;;;17.92;;
67902;SDS011;54708;43.612;1.568;2022-12-16T09:21:42;21.98;;;14.45;;
67902;SDS011;54708;43.612;1.568;2022-12-16T09:24:26;22.63;;;15.40;;
67902;SDS011;54708;43.612;1.568;2022-12-16T09:27:10;21.08;;;15.20;;
67902;SDS011;54708;43.612;1.568;2022-12-16T09:29:54;23.00;;;17.13;;
67902;SDS011;54708;43.612;1.568;2022-12-16T09:32:42;24.05;;;16.15;;
67902;SDS011;54708;43.612;1.568;2022-12-16T09:35:27;26.48;;;16.27;;
67902;SDS011;54708;43.612;1.568;2022-12-16T09:38:11;24.60;;;16.88;;
67902;SDS011;54708;43.612;1.568;2022-12-16T09:40:54;26.02;;;17.40;;
67902;SDS011;54708;43.612;1.568;2022-12-16T09:46:54;24.77;;;15.73;;
67902;SDS011;54708;43.612;1.568;2022-12-16T09:49:48;20.65;;;15.90;;
67902;SDS011;54708;43.612;1.568;2022-12-16T09:52:36;22.13;;;15.45;;
67902;SDS011;54708;43.612;1.568;2022-12-16T09:58:10;20.55;;;14.25;;
67902;SDS011;54708;43.612;1.568;2022-12-16T10:00:55;22.50;;;16.48;;
67902;SDS011;54708;43.612;1.568;2022-12-16T10:03:39;25.55;;;17.13;;
67902;SDS011;54708;43.612;1.568;2022-12-16T10:07:06;22.63;;;16.70;;
67902;SDS011;54708;43.612;1.568;2022-12-16T10:15:42;22.85;;;15.40;;
67902;SDS011;54708;43.612;1.568;2022-12-16T10:18:36;17.48;;;13.10;;
67902;SDS011;54708;43.612;1.568;2022-12-16T10:21:44;17.30;;;13.82;;
67902;SDS011;54708;43.612;1.568;2022-12-16T10:24:40;22.10;;;15.25;;
67902;SDS011;54708;43.612;1.568;2022-12-16T10:27:43;16.17;;;13.02;;
67902;SDS011;54708;43.612;1.568;2022-12-16T10:30:30;17.17;;;12.70;;
67902;SDS011;54708;43.612;1.568;2022-12-16T10:33:16;30.83;;;14.27;;
67902;SDS011;54708;43.612;1.568;2022-12-16T10:36:01;17.52;;;13.82;;
67902;SDS011;54708;43.612;1.568;2022-12-16T10:38:57;17.13;;;12.93;;
67902;SDS011;54708;43.612;1.568;2022-12-16T10:41:44;13.20;;;10.80;;
67902;SDS011;54708;43.612;1.568;2022-12-16T10:44:35;14.02;;;10.02;;
67902;SDS011;54708;43.612;1.568;2022-12-16T10:47:30;16.25;;;10.68;;
67902;SDS011;54708;43.612;1.568;2022-12-16T10:50:14;15.68;;;10.77;;
67902;SDS011;54708;43.612;1.568;2022-12-16T10:52:59;12.57;;;10.70;;
67902;SDS011;54708;43.612;1.568;2022-12-16T10:58:55;14.57;;;11.52;;
67902;SDS011;54708;43.612;1.568;2022-12-16T11:01:42;13.50;;;11.15;;
67902;SDS011;54708;43.612;1.568;2022-12-16T11:04:48;10.40;;;8.60;;
67902;SDS011;54708;43.612;1.568;2022-12-16T11:07:37;14.13;;;10.50;;
67902;SDS011;54708;43.612;1.568;2022-12-16T11:16:20;11.95;;;9.63;;
67902;SDS011;54708;43.612;1.568;2022-12-16T11:19:18;11.23;;;8.60;;
67902;SDS011;54708;43.612;1.568;2022-12-16T11:22:09;10.27;;;8.35;;
67902;SDS011;54708;43.612;1.568;2022-12-16T11:25:14;8.93;;;8.02;;
67902;SDS011;54708;43.612;1.568;2022-12-16T11:28:12;7.38;;;6.65;;
67902;SDS011;54708;43.612;1.568;2022-12-16T11:30:58;8.32;;;7.22;;
67902;SDS011;54708;43.612;1.568;2022-12-16T11:34:04;9.32;;;6.82;;
67902;SDS011;54708;43.612;1.568;2022-12-16T11:36:48;9.75;;;7.88;;
67902;SDS011;54708;43.612;1.568;2022-12-16T11:39:33;16.17;;;10.40;;
67902;SDS011;54708;43.612;1.568;2022-12-16T11:42:27;18.05;;;11.52;;
67902;SDS011;54708;43.612;1.568;2022-12-16T11:45:16;10.82;;;8.18;;
67902;SDS011;54708;43.612;1.568;2022-12-16T11:48:22;10.35;;;8.35;;
67902;SDS011;54708;43.612;1.568;2022-12-16T11:51:11;13.25;;;9.80;;
67902;SDS011;54708;43.612;1.568;2022-12-16T11:54:03;9.55;;;7.35;;
67902;SDS011;54708;43.612;1.568;2022-12-16T11:56:51;8.10;;;6.57;;
67902;SDS011;54708;43.612;1.568;2022-12-16T11:59:52;10.60;;;7.25;;
67902;SDS011;54708;43.612;1.568;2022-12-16T12:18:09;17.83;;;9.18;;
67902;SDS011;54708;43.612;1.568;2022-12-16T12:27:09;11.32;;;7.57;;
67902;SDS011;54708;43.612;1.568;2022-12-16T12:30:02;7.35;;;6.43;;
67902;SDS011;54708;43.612;1.568;2022-12-16T12:42:04;9.88;;;8.25;;
67902;SDS011;54708;43.612;1.568;2022-12-16T12:45:42;7.70;;;6.90;;
67902;SDS011;54708;43.612;1.568;2022-12-16T12:56:58;10.20;;;7.53;;
67902;SDS011;54708;43.612;1.568;2022-12-16T13:03:04;8.07;;;6.25;;
67902;SDS011;54708;43.612;1.568;2022-12-16T13:05:53;9.15;;;6.95;;
67902;SDS011;54708;43.612;1.568;2022-12-16T13:11:24;11.60;;;6.60;;
67902;SDS011;54708;43.612;1.568;2022-12-16T13:17:14;17.90;;;10.02;;
67902;SDS011;54708;43.612;1.568;2022-12-16T13:20:03;15.63;;;10.38;;
67902;SDS011;54708;43.612;1.568;2022-12-16T13:26:10;7.45;;;6.70;;
67902;SDS011;54708;43.612;1.568;2022-12-16T13:32:01;7.72;;;6.90;;
67902;SDS011;54708;43.612;1.568;2022-12-16T13:34:57;12.73;;;7.63;;
67902;SDS011;54708;43.612;1.568;2022-12-16T13:37:51;11.43;;;7.78;;
67902;SDS011;54708;43.612;1.568;2022-12-16T13:40:55;8.65;;;7.57;;
67902;SDS011;54708;43.612;1.568;2022-12-16T13:43:50;17.83;;;11.52;;
67902;SDS011;54708;43.612;1.568;2022-12-16T13:46:44;21.60;;;13.75;;
67902;SDS011;54708;43.612;1.568;2022-12-16T13:52:42;21.63;;;12.45;;
67902;SDS011;54708;43.612;1.568;2022-12-16T13:55:47;16.27;;;11.20;;
67902;SDS011;54708;43.612;1.568;2022-12-16T14:04:30;14.57;;;11.30;;
67902;SDS011;54708;43.612;1.568;2022-12-16T14:07:16;20.45;;;13.20;;
67902;SDS011;54708;43.612;1.568;2022-12-16T14:10:02;33.97;;;19.63;;
67902;SDS011;54708;43.612;1.568;2022-12-16T14:12:55;29.25;;;18.77;;
67902;SDS011;54708;43.612;1.568;2022-12-16T14:15:51;20.48;;;14.52;;
67902;SDS011;54708;43.612;1.568;2022-12-16T14:21:39;19.10;;;14.02;;
67902;SDS011;54708;43.612;1.568;2022-12-16T14:24:28;20.33;;;13.80;;
67902;SDS011;54708;43.612;1.568;2022-12-16T14:27:14;35.35;;;18.83;;
67902;SDS011;54708;43.612;1.568;2022-12-16T14:30:00;21.83;;;15.85;;
67902;SDS011;54708;43.612;1.568;2022-12-16T14:32:45;21.60;;;11.90;;
67902;SDS011;54708;43.612;1.568;2022-12-16T14:35:29;19.70;;;15.55;;
67902;SDS011;54708;43.612;1.568;2022-12-16T14:41:09;18.60;;;15.05;;
67902;SDS011;54708;43.612;1.568;2022-12-16T14:43:54;21.48;;;14.40;;
67902;SDS011;54708;43.612;1.568;2022-12-16T14:46:38;21.48;;;15.23;;
67902;SDS011;54708;43.612;1.568;2022-12-16T14:49:24;17.25;;;12.73;;
67902;SDS011;54708;43.612;1.568;2022-12-16T14:52:20;20.17;;;13.70;;
67902;SDS011;54708;43.612;1.568;2022-12-16T14:55:13;20.75;;;14.82;;
67902;SDS011;54708;43.612;1.568;2022-12-16T15:00:48;19.73;;;13.25;;
67902;SDS011;54708;43.612;1.568;2022-12-16T15:03:36;36.22;;;19.63;;
67902;SDS011;54708;43.612;1.568;2022-12-16T15:06:25;27.60;;;16.10;;
67902;SDS011;54708;43.612;1.568;2022-12-16T15:09:14;24.33;;;15.68;;
67902;SDS011;54708;43.612;1.568;2022-12-16T15:12:04;21.33;;;15.50;;
67902;SDS011;54708;43.612;1.568;2022-12-16T15:14:49;26.55;;;17.75;;
67902;SDS011;54708;43.612;1.568;2022-12-16T15:17:46;25.92;;;15.57;;
67902;SDS011;54708;43.612;1.568;2022-12-16T15:20:33;23.10;;;15.18;;
67902;SDS011;54708;43.612;1.568;2022-12-16T15:23:25;22.77;;;15.70;;
67902;SDS011;54708;43.612;1.568;2022-12-16T15:26:19;25.08;;;16.98;;
67902;SDS011;54708;43.612;1.568;2022-12-16T15:32:34;25.75;;;17.27;;
67902;SDS011;54708;43.612;1.568;2022-12-16T15:35:22;28.77;;;18.02;;
67902;SDS011;54708;43.612;1.568;2022-12-16T15:40:57;31.27;;;20.23;;
67902;SDS011;54708;43.612;1.568;2022-12-16T15:43:41;28.65;;;18.77;;
67902;SDS011;54708;43.612;1.568;2022-12-16T15:46:28;27.52;;;20.33;;
67902;SDS011;54708;43.612;1.568;2022-12-16T15:51:59;28.75;;;19.65;;
67902;SDS011;54708;43.612;1.568;2022-12-16T15:54:50;32.67;;;19.88;;
67902;SDS011;54708;43.612;1.568;2022-12-16T15:57:36;27.00;;;18.42;;
67902;SDS011;54708;43.612;1.568;2022-12-16T16:00:25;26.13;;;17.55;;
67902;SDS011;54708;43.612;1.568;2022-12-16T16:03:37;30.85;;;19.50;;
67902;SDS011;54708;43.612;1.568;2022-12-16T16:06:22;31.65;;;21.08;;
67902;SDS011;54708;43.612;1.568;2022-12-16T16:09:13;27.17;;;19.85;;
67902;SDS011;54708;43.612;1.568;2022-12-16T16:11:58;30.05;;;18.90;;
67902;SDS011;54708;43.612;1.568;2022-12-16T16:14:42;31.10;;;20.13;;
67902;SDS011;54708;43.612;1.568;2022-12-16T16:17:26;31.90;;;21.08;;
67902;SDS011;54708;43.612;1.568;2022-12-16T16:20:13;29.13;;;19.90;;
67902;SDS011;54708;43.612;1.568;2022-12-16T16:22:57;29.85;;;18.25;;
67902;SDS011;54708;43.612;1.568;2022-12-16T16:25:41;24.40;;;17.35;;
67902;SDS011;54708;43.612;1.568;2022-12-16T16:28:25;29.13;;;17.55;;
67902;SDS011;54708;43.612;1.568;2022-12-16T16:31:09;29.55;;;18.20;;
67902;SDS011;54708;43.612;1.568;2022-12-16T16:33:53;28.10;;;17.67;;
67902;SDS011;54708;43.612;1.568;2022-12-16T16:36:37;32.10;;;18.17;;
67902;SDS011;54708;43.612;1.568;2022-12-16T16:39:21;25.92;;;17.92;;
67902;SDS011;54708;43.612;1.568;2022-12-16T16:42:05;26.23;;;18.67;;
67902;SDS011;54708;43.612;1.568;2022-12-16T16:44:49;31.60;;;19.08;;
67902;SDS011;54708;43.612;1.568;2022-12-16T16:47:33;27.70;;;19.30;;
67902;SDS011;54708;43.612;1.568;2022-12-16T16:50:17;28.02;;;18.40;;
67902;SDS011;54708;43.612;1.568;2022-12-16T16:53:01;27.52;;;18.20;;
67902;SDS011;54708;43.612;1.568;2022-12-16T16:55:44;28.02;;;17.92;;
67902;SDS011;54708;43.612;1.568;2022-12-16T16:58:28;21.90;;;15.68;;
67902;SDS011;54708;43.612;1.568;2022-12-16T17:01:15;27.00;;;18.38;;
67902;SDS011;54708;43.612;1.568;2022-12-16T17:04:00;31.73;;;18.98;;
67902;SDS011;54708;43.612;1.568;2022-12-16T17:06:44;29.27;;;18.58;;
67902;SDS011;54708;43.612;1.568;2022-12-16T17:09:28;25.67;;;17.30;;
67902;SDS011;54708;43.612;1.568;2022-12-16T17:12:22;23.67;;;15.73;;
67902;SDS011;54708;43.612;1.568;2022-12-16T17:15:13;20.92;;;15.43;;
67902;SDS011;54708;43.612;1.568;2022-12-16T17:18:08;25.63;;;16.83;;
67902;SDS011;54708;43.612;1.568;2022-12-16T17:20:52;27.88;;;17.45;;
67902;SDS011;54708;43.612;1.568;2022-12-16T17:23:36;20.63;;;15.85;;
67902;SDS011;54708;43.612;1.568;2022-12-16T17:26:20;25.40;;;15.13;;
67902;SDS011;54708;43.612;1.568;2022-12-16T17:29:04;23.38;;;15.45;;
67902;SDS011;54708;43.612;1.568;2022-12-16T17:31:48;18.90;;;14.27;;
67902;SDS011;54708;43.612;1.568;2022-12-16T17:34:32;20.83;;;13.48;;
67902;SDS011;54708;43.612;1.568;2022-12-16T17:37:16;17.77;;;12.10;;
67902;SDS011;54708;43.612;1.568;2022-12-16T17:39:59;14.10;;;11.38;;
67902;SDS011;54708;43.612;1.568;2022-12-16T17:42:43;15.52;;;10.73;;
67902;SDS011;54708;43.612;1.568;2022-12-16T17:45:27;15.65;;;9.05;;
67902;SDS011;54708;43.612;1.568;2022-12-16T17:48:11;13.98;;;10.77;;
67902;SDS011;54708;43.612;1.568;2022-12-16T17:50:55;11.02;;;8.48;;
67902;SDS011;54708;43.612;1.568;2022-12-16T17:53:39;11.52;;;9.38;;
67902;SDS011;54708;43.612;1.568;2022-12-16T17:56:23;12.73;;;9.25;;
67902;SDS011;54708;43.612;1.568;2022-12-16T17:59:07;11.32;;;9.18;;
67902;SDS011;54708;43.612;1.568;2022-12-16T18:01:53;15.70;;;11.98;;
67902;SDS011;54708;43.612;1.568;2022-12-16T18:04:37;16.13;;;11.93;;
67902;SDS011;54708;43.612;1.568;2022-12-16T18:07:21;11.88;;;9.88;;
67902;SDS011;54708;43.612;1.568;2022-12-16T18:10:05;14.60;;;10.60;;
67902;SDS011;54708;43.612;1.568;2022-12-16T18:12:49;17.08;;;12.13;;
67902;SDS011;54708;43.612;1.568;2022-12-16T18:15:34;14.70;;;11.45;;